Time;durP1;ratioP1;P1;durP2;ratioP2;P2;SDS_P1;SDS_P2;PMS_P1;PMS_P2;Temp;Humidity;BMP_temperature;BMP_pressure;BME280_temperature;BME280_humidity;BME280_pressure;Samples;Min_cycle;Max_cycle;Signal;HPM_P1;HPM_P2
2023/03/09 00:02:22;;;;;;;20.57;7.70;;;;;;;7.96;67.89;94534.44;5018305;28;20296;-74
2023/03/09 00:04:47;;;;;;;17.53;7.77;;;;;;;7.87;68.02;94530.38;5007917;28;20797;-75
2023/03/09 00:07:13;;;;;;;17.53;7.40;;;;;;;7.79;68.29;94535.72;5032544;28;20229;-74
2023/03/09 00:22:08;;;;;;;22.23;9.73;;;;;;;7.42;70.36;94533.50;4979724;28;20617;-72
2023/03/09 00:24:33;;;;;;;20.67;9.27;;;;;;;7.44;70.79;94534.91;4964866;28;20264;-72
2023/03/09 00:26:59;;;;;;;23.67;9.07;;;;;;;7.53;70.90;94526.94;4951262;28;20229;-73
2023/03/09 00:29:26;;;;;;;21.30;9.10;;;;;;;7.31;71.36;94521.78;4965977;28;20220;-72
2023/03/09 00:31:52;;;;;;;18.77;7.97;;;;;;;7.41;70.99;94521.47;4951367;28;20799;-73
2023/03/09 00:34:18;;;;;;;16.57;8.00;;;;;;;7.44;71.51;94526.28;4976625;28;20243;-73
2023/03/09 00:36:43;;;;;;;17.27;8.17;;;;;;;7.22;71.32;94514.31;4953373;28;20837;-73
2023/03/09 00:39:09;;;;;;;17.13;7.67;;;;;;;7.25;71.93;94521.75;4953035;28;20251;-73
2023/03/09 00:41:35;;;;;;;18.40;7.93;;;;;;;7.23;72.85;94524.56;4952405;28;20327;-73
2023/03/09 00:44:01;;;;;;;17.07;8.47;;;;;;;7.24;71.98;94513.13;4967579;28;20676;-72
2023/03/09 00:46:27;;;;;;;17.90;8.47;;;;;;;7.21;71.79;94510.13;4950862;28;20228;-73
2023/03/09 00:48:53;;;;;;;18.70;8.70;;;;;;;7.07;73.00;94508.41;4952796;28;20292;-73
2023/03/09 00:51:18;;;;;;;16.73;8.10;;;;;;;7.22;72.95;94502.09;4954824;28;20232;-73
2023/03/09 00:53:43;;;;;;;17.33;8.07;;;;;;;7.17;72.60;94495.84;4971929;28;20228;-73
2023/03/09 00:56:15;;;;;;;17.93;7.90;;;;;;;6.91;73.07;94488.66;4959314;28;20228;-73
2023/03/09 00:58:40;;;;;;;14.30;7.47;;;;;;;6.88;73.87;94499.44;4935633;28;20241;-72
2023/03/09 01:01:10;;;;;;;17.30;8.20;;;;;;;6.96;73.16;94490.69;4967834;28;20237;-72
2023/03/09 01:03:36;;;;;;;17.50;8.07;;;;;;;7.01;72.62;94493.53;4966386;28;20260;-73
2023/03/09 01:06:01;;;;;;;18.77;8.00;;;;;;;7.05;73.24;94490.38;4944416;28;20239;-73
2023/03/09 01:08:27;;;;;;;18.10;7.90;;;;;;;6.97;72.77;94495.72;4935199;28;20224;-72
2023/03/09 01:10:52;;;;;;;16.67;7.43;;;;;;;7.03;72.83;94499.34;4982324;28;20228;-73
2023/03/09 01:13:18;;;;;;;18.20;8.43;;;;;;;7.06;72.87;94506.78;4932253;28;20234;-73
2023/03/09 01:15:43;;;;;;;16.40;7.70;;;;;;;7.17;72.67;94508.88;4950149;28;20233;-73
2023/03/09 01:18:09;;;;;;;14.37;7.23;;;;;;;6.91;72.79;94496.47;4952050;28;20710;-73
2023/03/09 01:20:34;;;;;;;17.83;7.90;;;;;;;6.97;73.26;94484.50;4935304;28;20505;-74
2023/03/09 01:23:00;;;;;;;14.80;7.20;;;;;;;6.98;73.32;94483.50;4956196;28;20637;-74
2023/03/09 01:25:26;;;;;;;16.37;7.30;;;;;;;6.97;73.56;94477.50;4940697;28;21151;-74
2023/03/09 01:27:52;;;;;;;18.40;7.07;;;;;;;6.92;73.51;94468.66;4941432;29;20236;-74
2023/03/09 01:30:17;;;;;;;14.73;7.33;;;;;;;6.91;74.43;94467.84;4926362;28;20229;-74
2023/03/09 01:32:43;;;;;;;16.63;7.40;;;;;;;6.95;73.94;94469.06;4927961;28;20761;-73
2023/03/09 01:35:08;;;;;;;17.80;7.73;;;;;;;7.00;73.68;94478.94;4930261;28;20252;-74
2023/03/09 01:37:34;;;;;;;18.20;7.17;;;;;;;6.92;74.07;94459.06;4921894;28;20672;-73
2023/03/09 01:39:59;;;;;;;18.20;7.57;;;;;;;7.06;73.57;94460.78;4938714;28;20229;-74
2023/03/09 01:42:25;;;;;;;18.43;7.27;;;;;;;7.09;73.60;94470.81;4960789;28;20229;-74
2023/03/09 01:45:32;;;;;;;15.37;7.53;;;;;;;7.06;73.73;94465.97;4924965;29;20240;-73
2023/03/09 01:47:58;;;;;;;15.80;7.33;;;;;;;7.09;73.31;94450.00;4969546;28;20228;-74
2023/03/09 01:50:30;;;;;;;15.30;7.37;;;;;;;6.74;74.28;94448.28;4928342;28;20232;-74
2023/03/09 01:52:56;;;;;;;16.53;7.33;;;;;;;6.87;74.20;94445.00;4957598;28;20228;-74
2023/03/09 01:55:28;;;;;;;15.47;7.90;;;;;;;6.82;73.26;94442.16;4923198;28;20236;-73
2023/03/09 01:57:55;;;;;;;17.63;7.70;;;;;;;6.78;74.82;94446.94;4953316;28;20228;-73
2023/03/09 02:00:24;;;;;;;15.70;7.03;;;;;;;6.81;74.52;94443.16;4934368;28;20298;-73
2023/03/09 02:03:12;;;;;;;16.77;7.10;;;;;;;6.67;75.34;94447.44;4921317;28;20316;-73
2023/03/09 02:05:41;;;;;;;16.60;7.30;;;;;;;6.59;75.52;94456.16;4967031;28;20228;-73
2023/03/09 02:08:08;;;;;;;14.50;7.37;;;;;;;6.62;75.19;94453.19;4939446;28;20268;-73
2023/03/09 02:10:38;;;;;;;15.90;7.17;;;;;;;6.64;74.96;94456.41;4909734;28;20225;-73
2023/03/09 02:13:08;;;;;;;15.83;7.07;;;;;;;6.51;76.22;94461.50;4938466;28;20229;-73
2023/03/09 02:15:34;;;;;;;16.87;7.20;;;;;;;6.59;76.24;94458.75;4946662;28;20324;-73
2023/03/09 02:18:00;;;;;;;13.90;7.07;;;;;;;6.65;76.82;94462.41;4912253;29;20317;-73
2023/03/09 02:20:28;;;;;;;18.30;7.27;;;;;;;6.62;76.08;94468.00;4954034;28;20308;-74
2023/03/09 02:22:54;;;;;;;15.87;6.93;;;;;;;6.64;75.91;94461.63;4939276;28;20666;-74
2023/03/09 02:25:30;;;;;;;16.63;6.83;;;;;;;6.57;75.75;94460.75;4957754;28;20229;-73
2023/03/09 02:27:55;;;;;;;14.90;7.00;;;;;;;6.64;76.21;94461.63;4956704;28;20221;-73
2023/03/09 02:30:22;;;;;;;13.87;7.00;;;;;;;6.93;75.37;94463.25;4935769;28;20233;-72
2023/03/09 02:32:48;;;;;;;15.67;7.27;;;;;;;6.94;75.10;94456.25;4934471;28;20284;-73
2023/03/09 02:35:13;;;;;;;14.80;6.80;;;;;;;6.98;75.84;94478.28;4955546;28;20233;-74
2023/03/09 02:37:39;;;;;;;19.60;7.30;;;;;;;6.98;74.75;94478.28;4945343;28;20236;-74
2023/03/09 02:40:16;;;;;;;16.93;7.23;;;;;;;6.76;75.08;94472.31;4941351;28;20240;-72
2023/03/09 02:42:42;;;;;;;15.67;7.00;;;;;;;6.66;76.61;94480.44;4969557;28;20240;-73
2023/03/09 02:45:08;;;;;;;18.67;6.93;;;;;;;6.74;75.44;94476.91;4943921;29;20248;-73
2023/03/09 02:47:34;;;;;;;15.20;6.93;;;;;;;6.75;76.18;94471.53;4944541;28;20245;-73
2023/03/09 02:50:00;;;;;;;19.40;7.47;;;;;;;6.51;77.07;94456.31;4935646;29;20234;-73
2023/03/09 02:52:25;;;;;;;17.50;7.10;;;;;;;6.42;76.67;94457.44;4951977;28;20277;-74
2023/03/09 02:54:51;;;;;;;14.63;7.20;;;;;;;6.60;76.40;94475.97;4969725;28;20234;-73
2023/03/09 02:57:16;;;;;;;16.50;7.10;;;;;;;6.74;76.23;94466.50;4957137;28;20233;-74
2023/03/09 02:59:42;;;;;;;15.97;6.83;;;;;;;6.87;76.03;94478.81;4927483;28;20457;-74
2023/03/09 03:02:09;;;;;;;12.53;6.13;;;;;;;6.72;75.60;94461.50;4951480;29;20229;-73
2023/03/09 03:04:34;;;;;;;14.63;6.70;;;;;;;6.81;76.28;94474.38;4953395;28;20284;-73
2023/03/09 03:07:00;;;;;;;15.93;6.90;;;;;;;6.85;75.63;94480.81;4936231;29;20229;-73
2023/03/09 03:09:25;;;;;;;13.57;6.30;;;;;;;6.86;76.79;94477.19;4962080;28;20285;-75
2023/03/09 03:11:51;;;;;;;15.57;6.37;;;;;;;7.05;75.16;94476.53;4926178;29;20234;-75
2023/03/09 03:14:16;;;;;;;19.23;7.00;;;;;;;7.12;75.01;94486.00;4932080;28;20233;-76
2023/03/09 03:16:42;;;;;;;14.33;6.47;;;;;;;7.00;75.34;94491.94;4937021;28;20316;-75
2023/03/09 03:19:07;;;;;;;14.67;6.33;;;;;;;7.11;74.45;94486.22;4969861;28;20599;-75
2023/03/09 03:21:33;;;;;;;14.17;6.27;;;;;;;7.06;74.16;94483.38;4936641;28;20237;-75
2023/03/09 03:23:59;;;;;;;16.00;6.07;;;;;;;7.03;75.60;94484.56;4939491;28;20588;-74
2023/03/09 03:26:24;;;;;;;12.20;5.90;;;;;;;6.99;75.24;94477.31;4919752;28;20253;-74
2023/03/09 03:28:49;;;;;;;15.30;6.20;;;;;;;7.06;75.25;94480.78;4972108;28;20232;-75
2023/03/09 03:31:15;;;;;;;10.17;5.60;;;;;;;7.11;74.65;94484.44;4930132;28;20242;-75
2023/03/09 03:33:40;;;;;;;15.13;5.80;;;;;;;7.08;75.09;94497.00;4955729;28;20248;-75
2023/03/09 03:36:06;;;;;;;14.17;5.93;;;;;;;7.10;75.17;94506.22;4938969;28;20243;-74
2023/03/09 03:38:32;;;;;;;11.87;6.10;;;;;;;7.18;74.48;94481.88;4920909;28;20230;-74
2023/03/09 03:40:57;;;;;;;13.50;5.83;;;;;;;7.12;75.15;94491.22;4921457;28;20324;-74
2023/03/09 03:43:23;;;;;;;13.13;6.10;;;;;;;7.16;74.17;94483.84;4925027;28;20650;-74
2023/03/09 03:45:48;;;;;;;12.23;6.03;;;;;;;7.10;74.98;94488.00;4955464;28;20742;-75
2023/03/09 03:48:14;;;;;;;14.53;5.70;;;;;;;6.97;76.43;94495.72;4954632;28;20222;-74
2023/03/09 03:50:39;;;;;;;11.90;5.93;;;;;;;7.09;75.39;94491.63;4954316;28;20237;-75
2023/03/09 03:53:05;;;;;;;11.63;5.53;;;;;;;7.14;75.58;94498.84;4928690;28;20248;-75
2023/03/09 03:55:30;;;;;;;13.30;5.20;;;;;;;6.98;75.94;94509.50;4922583;28;20230;-76
2023/03/09 03:57:56;;;;;;;14.07;5.30;;;;;;;7.03;75.01;94494.16;4952746;28;20232;-75
2023/03/09 04:00:22;;;;;;;12.47;4.97;;;;;;;6.97;74.74;94482.72;4968917;28;20232;-74
2023/03/09 04:02:48;;;;;;;11.13;5.10;;;;;;;6.92;75.48;94490.28;4965927;28;20766;-75
2023/03/09 04:05:13;;;;;;;10.63;5.03;;;;;;;6.91;75.76;94482.63;4944585;28;20240;-75
2023/03/09 04:07:39;;;;;;;11.50;5.13;;;;;;;6.77;76.13;94486.94;4924817;28;20237;-75
2023/03/09 04:10:05;;;;;;;13.43;5.30;;;;;;;6.49;77.95;94489.50;4961805;28;20702;-75
2023/03/09 04:12:30;;;;;;;12.63;5.30;;;;;;;6.57;76.95;94485.94;4945430;28;20237;-75
2023/03/09 04:14:56;;;;;;;9.43;4.80;;;;;;;6.56;77.27;94479.16;4936350;28;20237;-75
2023/03/09 04:17:21;;;;;;;27.90;9.27;;;;;;;6.68;76.36;94477.66;4935902;28;20232;-75
2023/03/09 04:19:47;;;;;;;16.97;6.83;;;;;;;6.63;77.31;94475.63;4952573;28;20643;-75
2023/03/09 04:22:12;;;;;;;17.83;6.73;;;;;;;6.63;77.38;94483.41;4923928;28;20233;-75
2023/03/09 04:24:37;;;;;;;23.97;7.60;;;;;;;6.63;77.21;94483.41;4970494;28;20244;-76
2023/03/09 04:27:03;;;;;;;18.50;7.10;;;;;;;6.50;77.33;94472.06;4936254;28;20233;-75
2023/03/09 04:29:28;;;;;;;14.00;6.13;;;;;;;6.66;76.74;94470.03;4936823;28;20229;-75
2023/03/09 04:31:54;;;;;;;12.43;5.90;;;;;;;6.49;77.21;94473.06;4943642;28;20247;-75
2023/03/09 04:34:19;;;;;;;12.30;5.43;;;;;;;6.62;76.52;94466.19;4950809;28;20234;-75
2023/03/09 04:36:45;;;;;;;14.23;5.50;;;;;;;6.61;77.30;94476.78;4937122;28;20268;-74
2023/03/09 04:39:10;;;;;;;12.77;5.33;;;;;;;6.60;76.78;94463.00;4968177;28;20225;-75
2023/03/09 04:41:36;;;;;;;13.10;5.17;;;;;;;6.65;77.06;94457.22;4933730;28;20324;-76
2023/03/09 04:44:02;;;;;;;16.20;5.43;;;;;;;6.45;77.93;94453.66;4920045;28;20378;-75
2023/03/09 04:46:27;;;;;;;16.27;5.70;;;;;;;6.52;77.46;94449.31;4923143;28;20236;-75
2023/03/09 04:48:53;;;;;;;14.77;5.40;;;;;;;6.59;77.81;94453.56;4935542;28;20229;-74
2023/03/09 04:51:19;;;;;;;14.90;5.73;;;;;;;6.64;77.13;94446.00;4937931;28;20673;-75
2023/03/09 04:53:44;;;;;;;13.70;5.47;;;;;;;6.59;76.79;94453.56;4934011;28;20263;-74
2023/03/09 04:56:10;;;;;;;13.33;5.53;;;;;;;6.52;77.74;94446.72;4956452;28;20230;-74
2023/03/09 04:58:36;;;;;;;13.67;5.33;;;;;;;6.54;77.61;94460.34;4955860;28;20229;-75
2023/03/09 05:01:01;;;;;;;13.77;5.47;;;;;;;6.71;76.82;94454.66;4923620;29;20237;-75
2023/03/09 05:03:27;;;;;;;22.13;5.90;;;;;;;6.64;77.32;94453.00;4955938;28;20240;-75
2023/03/09 05:05:53;;;;;;;14.30;5.20;;;;;;;6.49;77.47;94447.09;4921923;29;20233;-76
2023/03/09 05:08:18;;;;;;;17.17;6.30;;;;;;;6.34;79.09;94454.13;4970972;28;20253;-75
2023/03/09 05:10:44;;;;;;;11.90;5.30;;;;;;;6.32;78.37;94450.91;4937748;28;20228;-75
2023/03/09 05:13:09;;;;;;;16.43;5.60;;;;;;;6.39;78.46;94460.38;4907007;29;20233;-75
2023/03/09 05:15:40;;;;;;;13.57;5.40;;;;;;;6.43;78.15;94451.22;4930548;28;20237;-74
2023/03/09 05:18:06;;;;;;;13.37;5.20;;;;;;;6.34;77.78;94444.53;4954240;28;20315;-75
2023/03/09 05:20:32;;;;;;;11.80;5.43;;;;;;;6.39;78.07;94455.19;4924214;28;20245;-75
2023/03/09 05:22:58;;;;;;;13.83;4.90;;;;;;;6.48;77.75;94455.88;4948669;28;20235;-76
2023/03/09 05:25:24;;;;;;;16.80;7.00;;;;;;;6.55;77.09;94452.34;4955326;28;20245;-74
2023/03/09 05:27:50;;;;;;;17.37;7.80;;;;;;;6.46;78.10;94453.47;4927002;29;20675;-75
2023/03/09 05:30:16;;;;;;;32.97;11.70;;;;;;;6.62;76.79;94448.00;4928498;28;20234;-75
2023/03/09 05:32:41;;;;;;;28.67;10.67;;;;;;;6.71;76.61;94456.50;4947434;28;20241;-74
2023/03/09 05:35:07;;;;;;;36.60;13.37;;;;;;;6.70;76.20;94463.47;4943892;28;20243;-74
2023/03/09 05:37:33;;;;;;;18.80;8.07;;;;;;;6.61;76.97;94466.41;4960254;28;20233;-73
2023/03/09 05:39:59;;;;;;;18.43;7.50;;;;;;;6.60;76.79;94475.19;4944762;28;20239;-73
2023/03/09 05:42:24;;;;;;;27.40;9.20;;;;;;;6.82;77.35;94489.78;4942309;28;20408;-73
2023/03/09 05:44:50;;;;;;;36.93;15.50;;;;;;;6.92;75.87;94490.28;4922216;28;20234;-73
2023/03/09 05:47:15;;;;;;;49.07;17.87;;;;;;;6.96;74.66;94482.88;4938922;28;20233;-73
2023/03/09 05:49:41;;;;;;;42.83;16.47;;;;;;;7.18;74.65;94487.06;4935670;28;20249;-73
2023/03/09 05:52:06;;;;;;;36.40;15.83;;;;;;;7.47;73.25;94479.06;4939948;28;20237;-73
2023/03/09 05:54:32;;;;;;;46.90;17.40;;;;;;;7.74;71.58;94474.81;4920973;28;20315;-73
2023/03/09 05:56:57;;;;;;;47.07;17.30;;;;;;;7.65;72.97;94487.16;4935051;28;20252;-74
2023/03/09 05:59:23;;;;;;;39.87;16.80;;;;;;;7.69;72.25;94487.59;4936137;28;20256;-75
2023/03/09 06:01:48;;;;;;;42.23;15.90;;;;;;;7.55;73.23;94496.34;4939112;29;20255;-74
2023/03/09 06:04:14;;;;;;;37.33;15.63;;;;;;;7.82;72.15;94503.28;4957305;28;20308;-74
2023/03/09 06:06:39;;;;;;;35.30;15.27;;;;;;;7.85;71.14;94502.91;4935555;28;20312;-74
2023/03/09 06:09:05;;;;;;;38.90;15.83;;;;;;;7.85;72.40;94508.94;4937557;28;20301;-73
2023/03/09 06:11:31;;;;;;;37.00;14.80;;;;;;;7.97;72.37;94512.59;4943815;28;20225;-74
2023/03/09 06:13:57;;;;;;;34.10;14.17;;;;;;;8.12;70.63;94520.25;4921042;28;20263;-74
2023/03/09 06:16:22;;;;;;;38.53;14.90;;;;;;;8.21;69.45;94513.09;4961195;28;20245;-74
2023/03/09 06:18:48;;;;;;;36.73;15.20;;;;;;;8.28;68.71;94512.16;4925195;29;20241;-74
2023/03/09 06:21:14;;;;;;;38.23;15.47;;;;;;;8.14;68.92;94506.03;4952599;28;20240;-74
2023/03/09 06:23:39;;;;;;;40.07;14.50;;;;;;;8.18;69.27;94506.47;4937154;28;20260;-73
2023/03/09 06:26:07;;;;;;;33.57;14.20;;;;;;;8.29;68.55;94510.34;4951853;28;20787;-73
2023/03/09 06:28:32;;;;;;;35.57;14.10;;;;;;;8.33;68.65;94506.34;4944644;28;20249;-73
2023/03/09 06:30:58;;;;;;;33.03;14.70;;;;;;;8.35;69.86;94502.53;4959535;28;20320;-73
2023/03/09 06:33:23;;;;;;;35.83;14.90;;;;;;;8.58;68.62;94499.59;4939489;28;20299;-74
2023/03/09 06:35:48;;;;;;;25.53;12.30;;;;;;;8.73;67.43;94502.84;4948965;28;20295;-73
2023/03/09 06:38:14;;;;;;;23.67;11.53;;;;;;;8.76;67.03;94503.22;4937104;28;20256;-73
2023/03/09 06:40:39;;;;;;;25.47;11.00;;;;;;;9.04;66.19;94510.91;4936036;28;20232;-73
2023/03/09 06:43:05;;;;;;;22.50;10.17;;;;;;;9.05;64.38;94504.66;4936598;28;20625;-73
2023/03/09 06:45:30;;;;;;;21.20;9.27;;;;;;;9.13;63.80;94512.31;4950368;28;20241;-74
2023/03/09 06:47:56;;;;;;;25.80;8.77;;;;;;;9.20;63.54;94505.28;4937349;29;20718;-74
2023/03/09 06:50:23;;;;;;;22.37;8.70;;;;;;;9.13;63.94;94491.41;4921240;28;20439;-74
2023/03/09 06:52:48;;;;;;;19.50;8.60;;;;;;;9.30;63.82;94487.41;4929968;28;20230;-74
2023/03/09 06:55:14;;;;;;;16.00;7.17;;;;;;;9.31;62.55;94488.22;4936847;28;20289;-74
2023/03/09 06:57:39;;;;;;;14.83;7.37;;;;;;;9.45;62.89;94479.34;4935447;28;20612;-74
2023/03/09 07:00:07;;;;;;;15.97;7.13;;;;;;;9.64;62.88;94475.09;4945695;28;20320;-74
2023/03/09 07:02:32;;;;;;;12.70;6.10;;;;;;;9.62;60.75;94471.91;4915082;29;20237;-73
2023/03/09 07:04:57;;;;;;;13.97;5.47;;;;;;;9.75;60.26;94477.88;4918853;29;20233;-73
2023/03/09 07:07:23;;;;;;;12.50;5.70;;;;;;;10.04;59.94;94481.81;4936244;28;21101;-73
2023/03/09 07:09:48;;;;;;;17.07;6.83;;;;;;;10.14;59.78;94471.75;4967863;28;20237;-74
2023/03/09 07:12:14;;;;;;;14.40;5.70;;;;;;;10.10;59.84;94486.22;4919300;29;20229;-73
2023/03/09 07:14:39;;;;;;;10.60;5.33;;;;;;;9.78;59.91;94479.28;4932415;28;20668;-73
2023/03/09 07:17:05;;;;;;;14.70;5.77;;;;;;;9.77;59.61;94480.28;4948409;28;20249;-74
2023/03/09 07:19:30;;;;;;;11.87;5.80;;;;;;;9.81;60.35;94476.25;4944650;28;20300;-74
2023/03/09 07:21:56;;;;;;;12.07;6.10;;;;;;;10.17;59.62;94479.19;4931976;28;20269;-73
2023/03/09 07:24:21;;;;;;;15.30;6.43;;;;;;;10.31;58.89;94482.53;4921940;28;20640;-74
2023/03/09 07:26:47;;;;;;;16.47;6.33;;;;;;;10.69;59.32;94473.69;4938484;28;20261;-74
2023/03/09 07:29:13;;;;;;;17.50;7.57;;;;;;;10.83;59.02;94485.69;4921036;29;20245;-73
2023/03/09 07:31:39;;;;;;;22.87;10.23;;;;;;;10.34;59.53;94487.38;4937237;28;20703;-73
2023/03/09 07:34:05;;;;;;;25.50;11.40;;;;;;;10.44;59.38;94490.31;4937813;29;20233;-73
2023/03/09 07:36:30;;;;;;;29.00;12.13;;;;;;;10.57;59.14;94491.06;4944526;28;20244;-73
2023/03/09 07:38:55;;;;;;;25.40;12.17;;;;;;;10.50;59.45;94494.72;4927248;28;20260;-73
2023/03/09 07:41:21;;;;;;;22.93;12.07;;;;;;;10.71;58.52;94491.78;4969762;28;20252;-73
2023/03/09 07:43:46;;;;;;;23.37;10.93;;;;;;;10.72;58.98;94502.03;4935136;28;20229;-73
2023/03/09 07:46:16;;;;;;;28.40;11.60;;;;;;;10.67;58.63;94488.81;4935581;28;20447;-73
2023/03/09 07:48:42;;;;;;;25.13;11.40;;;;;;;10.37;59.79;94489.53;4956230;28;20252;-73
2023/03/09 07:51:07;;;;;;;22.67;10.60;;;;;;;10.37;60.24;94489.53;4936767;28;20233;-73
2023/03/09 07:53:34;;;;;;;26.97;10.97;;;;;;;10.91;58.28;94489.06;4925789;28;20240;-73
2023/03/09 07:56:03;;;;;;;20.77;9.60;;;;;;;11.10;57.54;94494.16;4933474;28;20785;-72
2023/03/09 07:58:29;;;;;;;23.47;9.57;;;;;;;11.04;57.91;94496.78;4966999;28;20226;-73
2023/03/09 08:00:54;;;;;;;22.80;10.97;;;;;;;10.87;58.78;94499.13;4958002;28;20341;-73
2023/03/09 08:03:20;;;;;;;21.73;9.50;;;;;;;10.48;59.26;94486.28;4930665;28;20233;-74
2023/03/09 08:05:45;;;;;;;24.23;8.93;;;;;;;10.66;59.13;94491.63;4969682;28;20241;-74
2023/03/09 08:08:11;;;;;;;17.83;8.17;;;;;;;10.66;59.72;94494.22;4935603;28;20225;-74
2023/03/09 08:10:37;;;;;;;20.20;9.00;;;;;;;10.74;58.81;94484.34;4935382;28;20236;-74
2023/03/09 08:13:02;;;;;;;20.23;8.67;;;;;;;11.06;59.58;94497.38;4951616;28;20677;-74
2023/03/09 08:15:28;;;;;;;19.27;8.13;;;;;;;10.90;59.18;94500.53;4935041;28;20237;-73
2023/03/09 08:17:53;;;;;;;18.97;8.30;;;;;;;10.74;59.39;94496.59;4944012;28;20292;-73
2023/03/09 08:20:18;;;;;;;19.93;8.10;;;;;;;11.18;58.04;94490.44;4950245;28;20237;-73
2023/03/09 08:22:44;;;;;;;17.57;7.60;;;;;;;11.23;57.57;94498.47;4935450;28;20238;-74
2023/03/09 08:25:09;;;;;;;16.93;7.50;;;;;;;11.15;57.15;94490.91;4970187;28;20614;-73
2023/03/09 08:27:39;;;;;;;17.83;8.07;;;;;;;11.19;57.81;94481.59;4932758;28;20631;-74
2023/03/09 08:30:05;;;;;;;16.53;7.13;;;;;;;11.34;57.72;94484.69;4963994;28;20252;-73
2023/03/09 08:32:31;;;;;;;17.00;7.13;;;;;;;11.47;57.80;94481.94;4919494;28;20711;-74
2023/03/09 08:34:56;;;;;;;17.90;7.60;;;;;;;11.68;57.03;94480.78;4940116;28;20240;-73
2023/03/09 08:37:22;;;;;;;18.77;7.00;;;;;;;11.56;57.03;94470.16;4937478;28;20840;-74
2023/03/09 08:39:50;;;;;;;16.93;6.97;;;;;;;11.78;56.51;94476.63;4916915;29;20256;-74
2023/03/09 08:42:16;;;;;;;17.87;7.03;;;;;;;12.18;56.24;94475.16;4923230;29;20270;-74
2023/03/09 08:44:41;;;;;;;18.80;6.73;;;;;;;12.02;56.84;94478.38;4945867;28;20244;-73
2023/03/09 08:47:07;;;;;;;16.40;7.03;;;;;;;11.98;56.45;94472.00;4956553;28;20229;-74
2023/03/09 08:49:32;;;;;;;15.97;7.03;;;;;;;12.05;56.51;94459.59;4921690;28;20241;-73
2023/03/09 08:51:58;;;;;;;16.27;6.30;;;;;;;12.43;56.39;94467.19;4936371;28;20842;-73
2023/03/09 08:54:23;;;;;;;16.07;6.77;;;;;;;12.52;55.10;94468.50;4941224;28;20229;-74
2023/03/09 08:56:48;;;;;;;15.93;7.10;;;;;;;12.42;55.26;94459.56;4940888;28;20232;-74
2023/03/09 08:59:14;;;;;;;14.70;6.67;;;;;;;12.64;54.82;94464.09;4939651;28;20229;-73
2023/03/09 09:01:39;;;;;;;17.17;6.90;;;;;;;12.81;54.13;94456.38;4935440;28;20272;-73
2023/03/09 09:04:05;;;;;;;15.70;6.67;;;;;;;12.96;54.18;94462.03;4955738;28;20248;-75
2023/03/09 09:06:30;;;;;;;18.53;6.60;;;;;;;13.08;54.00;94459.44;4940812;28;20229;-75
2023/03/09 09:08:56;;;;;;;16.97;7.07;;;;;;;12.98;53.77;94451.28;4957332;28;20260;-76
2023/03/09 09:11:21;;;;;;;20.77;7.07;;;;;;;12.86;53.69;94446.00;4936066;28;20249;-76
2023/03/09 09:13:47;;;;;;;18.80;6.60;;;;;;;12.45;54.78;94438.09;4970312;28;20270;-76
2023/03/09 09:16:13;;;;;;;15.47;6.90;;;;;;;12.61;54.34;94438.28;4971526;28;20694;-76
2023/03/09 09:18:39;;;;;;;14.93;7.13;;;;;;;12.83;54.72;94426.25;4947749;28;20333;-75
2023/03/09 09:21:07;;;;;;;12.77;6.07;;;;;;;12.84;54.18;94430.47;4925124;28;20303;-76
2023/03/09 09:23:34;;;;;;;17.33;5.70;;;;;;;12.83;54.41;94422.81;4939297;28;20225;-75
2023/03/09 09:25:59;;;;;;;14.83;6.10;;;;;;;12.62;54.31;94423.34;4958649;28;20240;-75
2023/03/09 09:28:25;;;;;;;13.60;6.00;;;;;;;12.66;55.34;94421.84;4954992;28;20237;-74
2023/03/09 09:30:54;;;;;;;15.73;5.47;;;;;;;12.75;54.97;94420.53;4939637;28;20654;-76
2023/03/09 09:33:20;;;;;;;10.97;5.23;;;;;;;12.81;53.97;94419.63;4976518;28;20236;-76
2023/03/09 09:36:02;;;;;;;17.77;5.23;;;;;;;12.88;53.72;94414.25;4950861;28;20389;-75
2023/03/09 09:38:28;;;;;;;12.50;4.73;;;;;;;12.81;53.71;94406.47;4928391;28;20267;-75
2023/03/09 09:40:54;;;;;;;11.40;5.20;;;;;;;13.06;53.28;94406.34;4957473;28;20256;-75
2023/03/09 09:43:23;;;;;;;13.40;5.00;;;;;;;13.38;52.79;94397.88;4919592;28;20234;-75
2023/03/09 09:45:50;;;;;;;12.80;4.87;;;;;;;13.62;52.28;94393.41;4934714;28;20241;-75
2023/03/09 09:48:17;;;;;;;13.63;4.80;;;;;;;13.60;51.85;94408.63;4953818;28;20256;-75
2023/03/09 09:51:07;;;;;;;13.97;5.03;;;;;;;13.55;52.22;94408.50;4927654;28;20249;-76
2023/03/09 09:53:52;;;;;;;12.17;5.00;;;;;;;13.56;51.44;94396.97;4936752;28;20637;-76
2023/03/09 09:56:20;;;;;;;12.40;5.30;;;;;;;13.63;51.95;94394.22;4946966;28;20686;-76
2023/03/09 09:58:50;;;;;;;15.00;5.37;;;;;;;13.95;51.10;94384.88;4956002;28;20237;-75
2023/03/09 10:01:41;;;;;;;14.53;5.17;;;;;;;14.17;51.02;94393.72;4953600;28;20762;-75
2023/03/09 10:04:10;;;;;;;9.83;4.73;;;;;;;14.24;50.55;94389.13;4939614;28;20225;-75
2023/03/09 10:06:36;;;;;;;17.33;5.20;;;;;;;14.16;50.01;94379.00;4952463;28;20248;-75
2023/03/09 10:09:21;;;;;;;10.07;4.70;;;;;;;14.37;50.06;94373.09;4923746;28;20229;-75
2023/03/09 10:11:49;;;;;;;15.57;4.80;;;;;;;14.66;49.96;94369.38;4936122;28;20233;-75
2023/03/09 10:14:28;;;;;;;11.93;4.37;;;;;;;14.55;49.71;94367.63;4955522;28;20226;-75
2023/03/09 10:17:13;;;;;;;11.87;4.93;;;;;;;14.55;49.05;94354.44;4939600;28;20241;-75
2023/03/09 10:19:40;;;;;;;11.10;4.40;;;;;;;14.80;49.72;94354.09;4945083;28;20607;-75
2023/03/09 10:22:10;;;;;;;14.10;5.27;;;;;;;14.73;48.72;94348.97;4933297;28;20233;-73
2023/03/09 10:24:40;;;;;;;11.97;4.80;;;;;;;14.50;48.73;94343.81;4939633;28;20767;-73
2023/03/09 10:27:11;;;;;;;9.80;4.73;;;;;;;14.78;49.13;94340.34;4936754;28;20301;-73
2023/03/09 10:29:39;;;;;;;10.17;4.40;;;;;;;14.92;49.52;94331.09;4938983;28;20265;-73
2023/03/09 10:32:11;;;;;;;12.03;4.80;;;;;;;15.17;49.17;94325.38;4937665;28;20234;-73
2023/03/09 10:35:03;;;;;;;15.23;5.40;;;;;;;15.28;47.70;94327.94;4944867;28;20232;-73
2023/03/09 10:37:34;;;;;;;11.40;4.60;;;;;;;15.18;47.42;94317.25;4920370;29;20233;-73
2023/03/09 10:40:05;;;;;;;11.43;4.67;;;;;;;15.55;47.85;94306.94;4914914;29;20233;-74
2023/03/09 10:42:33;;;;;;;10.70;4.30;;;;;;;15.77;47.00;94320.94;4945126;28;20240;-73
2023/03/09 10:45:02;;;;;;;11.33;4.10;;;;;;;15.93;46.47;94320.06;4948068;28;20265;-74
2023/03/09 10:47:46;;;;;;;16.00;4.27;;;;;;;15.72;46.44;94306.88;4942564;28;20307;-73
2023/03/09 10:50:12;;;;;;;9.33;3.73;;;;;;;16.06;46.42;94297.78;4924059;29;20241;-74
2023/03/09 10:52:37;;;;;;;10.80;3.90;;;;;;;16.05;45.76;94289.06;4934254;28;20650;-74
2023/03/09 10:55:22;;;;;;;10.13;3.77;;;;;;;16.11;46.93;94288.09;4967084;28;20758;-73
2023/03/09 10:58:01;;;;;;;9.47;3.60;;;;;;;16.28;45.24;94274.78;4951978;28;20248;-73
2023/03/09 11:00:27;;;;;;;12.30;3.90;;;;;;;16.65;46.66;94270.38;4928931;28;20281;-74
2023/03/09 11:02:54;;;;;;;14.53;3.90;;;;;;;16.79;44.92;94276.00;4952751;28;20237;-73
2023/03/09 11:05:20;;;;;;;4.80;2.03;;;;;;;17.03;44.02;94264.00;4928796;28;20220;-73
2023/03/09 11:07:53;;;;;;;4.20;1.97;;;;;;;17.24;44.55;94265.72;4967392;28;20312;-74
2023/03/09 11:10:29;;;;;;;2.53;1.70;;;;;;;17.50;44.03;94264.03;4917145;28;20241;-77
2023/03/09 11:12:55;;;;;;;5.83;1.70;;;;;;;17.44;43.53;94259.75;4950227;28;20244;-77
2023/03/09 11:15:31;;;;;;;3.60;1.50;;;;;;;17.60;43.53;94263.31;4924932;28;20229;-78
2023/03/09 11:17:57;;;;;;;5.03;1.57;;;;;;;17.84;42.91;94253.88;4969086;28;20256;-78
2023/03/09 11:20:25;;;;;;;3.03;1.70;;;;;;;17.84;42.67;94251.22;4945105;28;20761;-79
2023/03/09 11:22:57;;;;;;;4.43;1.60;;;;;;;17.68;43.04;94250.34;4926046;28;20758;-77
2023/03/09 11:26:20;;;;;;;3.07;1.60;;;;;;;17.85;42.68;94232.41;4938240;28;20237;-78
2023/03/09 11:28:57;;;;;;;4.50;1.70;;;;;;;17.89;42.18;94227.38;4964689;28;20314;-76
2023/03/09 11:31:37;;;;;;;3.60;1.87;;;;;;;18.21;41.99;94222.69;4963581;28;20427;-77
2023/03/09 11:34:02;;;;;;;4.40;1.80;;;;;;;18.32;41.58;94218.97;4923521;29;20237;-77
2023/03/09 11:36:39;;;;;;;2.47;1.57;;;;;;;18.36;41.63;94217.41;4924300;28;20280;-76
2023/03/09 11:39:05;;;;;;;1.70;1.50;;;;;;;18.23;41.44;94211.81;4954363;28;20967;-77
2023/03/09 11:41:34;;;;;;;3.53;1.80;;;;;;;18.18;41.67;94220.56;4912385;28;20229;-78
2023/03/09 11:44:21;;;;;;;3.63;1.60;;;;;;;18.36;41.45;94200.72;4939082;28;20244;-73